Time;durP1;ratioP1;P1;durP2;ratioP2;P2;SDS_P1;SDS_P2;PMS_P1;PMS_P2;Temp;Humidity;BMP_temperature;BMP_pressure;BME280_temperature;BME280_humidity;BME280_pressure;Samples;Min_cycle;Max_cycle;Signal;HPM_P1;HPM_P2
2021/01/30 00:02:50;;;;;;;48.80;25.98;;;;;;;1.21;62.33;97005.91;258676;1115;114881;-70
2021/01/30 00:07:57;;;;;;;58.18;28.90;;;;;;;1.21;62.44;97013.77;258827;1116;114813;-70
2021/01/30 00:13:02;;;;;;;52.38;27.83;;;;;;;1.18;62.56;97017.41;258984;1116;117456;-71
2021/01/30 00:18:07;;;;;;;55.93;28.05;;;;;;;1.20;62.85;97023.41;258898;1114;114936;-70
2021/01/30 00:23:11;;;;;;;53.60;26.70;;;;;;;1.20;62.63;97030.43;258846;1113;115238;-70
2021/01/30 00:28:17;;;;;;;53.63;27.40;;;;;;;1.20;63.28;97019.95;258825;1113;115216;-70
2021/01/30 00:33:32;;;;;;;53.18;28.00;;;;;;;1.21;62.79;97017.23;258744;1116;114807;-71
2021/01/30 00:38:56;;;;;;;53.55;27.93;;;;;;;1.23;63.06;97014.54;256437;1116;116145;-69
2021/01/30 00:44:01;;;;;;;52.88;27.35;;;;;;;1.23;62.64;97028.48;255053;1112;115748;-71
2021/01/30 00:49:21;;;;;;;51.73;27.90;;;;;;;1.27;63.23;97034.39;257062;1116;115278;-70
2021/01/30 00:54:31;;;;;;;57.20;28.78;;;;;;;1.25;63.29;97031.84;258497;1119;115200;-71
2021/01/30 00:59:36;;;;;;;58.47;30.57;;;;;;;1.23;63.27;97030.26;258637;1117;114795;-69
2021/01/30 01:04:43;;;;;;;50.73;26.90;;;;;;;1.24;63.12;97037.17;258544;1116;115062;-70
2021/01/30 01:09:46;;;;;;;49.43;26.05;;;;;;;1.23;62.69;97025.02;258503;1117;114821;-69
2021/01/30 01:14:49;;;;;;;47.38;25.10;;;;;;;1.25;63.22;97031.00;258895;1115;115482;-69
2021/01/30 01:19:51;;;;;;;52.30;26.55;;;;;;;1.26;63.13;97023.06;258822;1116;114640;-69
2021/01/30 01:24:54;;;;;;;51.48;25.93;;;;;;;1.26;63.00;97009.09;258823;1116;114833;-68
2021/01/30 01:29:58;;;;;;;52.10;26.53;;;;;;;1.22;63.13;97015.45;258848;1116;115216;-69
2021/01/30 01:35:00;;;;;;;52.70;26.83;;;;;;;1.17;62.99;97013.94;259081;1113;114826;-69
2021/01/30 01:40:04;;;;;;;53.53;27.73;;;;;;;1.15;63.32;97013.17;258884;1115;114769;-68
2021/01/30 01:45:07;;;;;;;54.85;28.20;;;;;;;1.14;63.71;97011.50;258894;1113;115074;-69
2021/01/30 01:50:37;;;;;;;46.70;25.48;;;;;;;1.13;63.00;97012.44;257052;1114;115426;-69
2021/01/30 01:55:43;;;;;;;54.55;25.98;;;;;;;1.12;63.66;97000.28;258849;1114;114654;-69
2021/01/30 02:00:50;;;;;;;50.83;26.48;;;;;;;1.09;63.65;97016.16;258783;1113;114860;-69
2021/01/30 02:06:03;;;;;;;51.08;26.33;;;;;;;1.09;63.54;97016.16;258605;1114;115175;-71
2021/01/30 02:11:05;;;;;;;55.45;27.53;;;;;;;1.12;63.60;97004.64;258842;1113;114724;-69
2021/01/30 02:16:45;;;;;;;55.40;27.68;;;;;;;1.12;63.78;97007.27;258734;1112;115451;-70
2021/01/30 02:22:26;;;;;;;54.28;28.08;;;;;;;1.12;63.91;96999.41;258885;1115;114954;-70
2021/01/30 02:27:31;;;;;;;51.00;28.05;;;;;;;1.16;63.67;96991.31;258678;1116;115472;-70
2021/01/30 02:33:04;;;;;;;52.15;28.40;;;;;;;1.20;63.92;96978.88;258819;1116;115010;-70
2021/01/30 02:38:12;;;;;;;53.83;28.25;;;;;;;1.23;63.93;96972.63;258869;1114;115095;-70
2021/01/30 02:43:21;;;;;;;55.30;29.10;;;;;;;1.25;63.91;96965.50;259052;1112;115153;-70
2021/01/30 02:48:33;;;;;;;55.43;28.73;;;;;;;1.29;63.74;96959.14;258814;1111;114807;-70
2021/01/30 02:53:43;;;;;;;52.78;29.53;;;;;;;1.36;64.09;96955.26;258812;1114;115031;-70
2021/01/30 02:59:07;;;;;;;54.20;28.93;;;;;;;1.37;63.65;96946.45;258869;1113;115392;-70
2021/01/30 03:04:18;;;;;;;54.50;29.53;;;;;;;1.37;64.25;96935.97;258796;1114;115197;-71
2021/01/30 03:09:20;;;;;;;54.65;28.18;;;;;;;1.41;64.12;96935.69;258822;1115;114977;-70
2021/01/30 03:14:24;;;;;;;54.15;28.70;;;;;;;1.43;63.91;96943.48;258744;1116;115223;-70
2021/01/30 03:19:30;;;;;;;58.68;31.03;;;;;;;1.38;64.03;96943.73;258753;1114;115253;-70
2021/01/30 03:24:37;;;;;;;56.28;30.05;;;;;;;1.40;64.02;96930.55;258824;1115;115291;-70
2021/01/30 03:29:39;;;;;;;58.58;29.80;;;;;;;1.43;64.21;96919.89;258839;1114;115192;-70
2021/01/30 03:34:41;;;;;;;48.85;27.05;;;;;;;1.46;63.95;96927.58;258814;1115;115139;-70
2021/01/30 03:39:44;;;;;;;59.33;30.55;;;;;;;1.49;64.14;96929.15;258795;1114;115191;-70
2021/01/30 03:44:47;;;;;;;56.33;30.33;;;;;;;1.52;64.35;96914.08;258832;1115;115666;-70
2021/01/30 03:49:49;;;;;;;59.58;28.00;;;;;;;1.53;64.42;96905.30;258800;1115;114977;-69
2021/01/30 03:54:51;;;;;;;53.05;29.48;;;;;;;1.52;64.33;96910.62;258786;1116;115017;-70
2021/01/30 03:59:53;;;;;;;53.60;30.53;;;;;;;1.54;64.36;96904.36;258815;1115;115106;-70
2021/01/30 04:04:55;;;;;;;61.28;33.13;;;;;;;1.58;64.51;96886.67;258889;1116;115850;-70
2021/01/30 04:09:58;;;;;;;55.20;30.60;;;;;;;1.60;64.38;96890.05;258746;1115;115357;-70
2021/01/30 04:15:00;;;;;;;65.13;32.05;;;;;;;1.60;64.14;96885.64;258866;1115;115073;-69
2021/01/30 04:20:04;;;;;;;60.67;30.73;;;;;;;1.61;64.73;96879.45;258813;1116;115708;-70
2021/01/30 04:25:07;;;;;;;61.75;32.75;;;;;;;1.58;64.30;96870.94;258917;1114;115449;-70
2021/01/30 04:30:13;;;;;;;58.90;30.98;;;;;;;1.58;64.56;96870.94;258796;1114;115138;-71
2021/01/30 04:35:19;;;;;;;55.58;30.75;;;;;;;1.59;64.77;96875.23;258861;1115;115092;-70
2021/01/30 04:40:30;;;;;;;59.85;31.75;;;;;;;1.59;64.46;96864.75;258828;1113;115198;-71
2021/01/30 04:45:56;;;;;;;59.15;32.63;;;;;;;1.63;64.71;96854.01;258672;1116;115070;-70
2021/01/30 04:51:23;;;;;;;62.20;33.38;;;;;;;1.67;64.49;96848.58;258864;1114;115147;-72
2021/01/30 04:56:34;;;;;;;62.23;31.73;;;;;;;1.65;64.53;96846.88;258873;1114;115037;-73
2021/01/30 05:01:39;;;;;;;69.27;35.43;;;;;;;1.68;65.02;96830.12;258867;1113;115254;-73
2021/01/30 05:06:51;;;;;;;72.10;39.75;;;;;;;1.72;64.63;96825.52;258799;1115;115091;-73
2021/01/30 05:12:03;;;;;;;71.20;39.93;;;;;;;1.73;64.91;96829.82;257821;1114;115543;-71
2021/01/30 05:17:25;;;;;;;77.55;40.13;;;;;;;1.72;64.49;96834.23;258840;1114;115256;-70
2021/01/30 05:22:46;;;;;;;75.73;41.70;;;;;;;1.71;64.74;96829.93;258401;1115;115416;-68
2021/01/30 05:28:01;;;;;;;74.27;40.73;;;;;;;1.75;64.56;96827.95;257386;1113;115080;-72
2021/01/30 05:33:34;;;;;;;73.18;39.90;;;;;;;1.68;64.45;96832.73;258965;1113;115080;-71
2021/01/30 05:38:49;;;;;;;73.68;39.58;;;;;;;1.69;64.53;96836.20;258760;1115;115082;-70
2021/01/30 05:44:00;;;;;;;76.40;39.68;;;;;;;1.62;64.43;96833.95;258899;1115;115288;-71
2021/01/30 05:49:09;;;;;;;76.58;40.75;;;;;;;1.58;64.29;96829.84;258881;1115;116675;-71
2021/01/30 05:54:11;;;;;;;71.78;39.65;;;;;;;1.59;64.48;96836.75;258796;1116;115020;-70
2021/01/30 05:59:23;;;;;;;77.35;39.05;;;;;;;1.60;64.53;96842.87;258859;1114;115181;-70
2021/01/30 06:04:27;;;;;;;79.98;39.18;;;;;;;1.63;64.58;96829.55;258764;1116;115213;-70
2021/01/30 06:09:36;;;;;;;76.70;39.25;;;;;;;1.58;64.57;96831.63;258841;1114;115408;-70
2021/01/30 06:14:40;;;;;;;73.63;38.03;;;;;;;1.56;64.42;96834.35;258971;1115;115254;-71
2021/01/30 06:19:42;;;;;;;71.33;35.45;;;;;;;1.54;64.75;96819.65;258887;1114;115520;-73
2021/01/30 06:24:46;;;;;;;63.55;32.98;;;;;;;1.51;64.60;96807.56;258730;1115;115089;-70
2021/01/30 06:29:53;;;;;;;60.98;33.80;;;;;;;1.48;64.52;96809.53;258780;1116;115631;-70
2021/01/30 06:35:11;;;;;;;66.00;34.43;;;;;;;1.46;64.57;96804.41;258694;1116;114981;-71
2021/01/30 06:40:16;;;;;;;70.60;35.43;;;;;;;1.48;64.79;96799.05;258806;1116;115051;-71
2021/01/30 06:45:26;;;;;;;68.23;36.40;;;;;;;1.48;64.64;96797.27;258865;1114;115603;-73
2021/01/30 06:50:40;;;;;;;74.18;38.93;;;;;;;1.53;64.86;96799.59;258795;1114;115022;-73
2021/01/30 06:55:42;;;;;;;77.60;38.65;;;;;;;1.58;64.73;96801.01;258897;1113;115088;-72
2021/01/30 07:00:45;;;;;;;77.50;38.28;;;;;;;1.60;64.85;96791.28;258756;1114;115384;-72
2021/01/30 07:05:59;;;;;;;72.50;38.50;;;;;;;1.64;65.11;96787.52;258799;1115;115080;-71
2021/01/30 07:11:16;;;;;;;77.88;40.90;;;;;;;1.74;65.00;96784.34;258988;1114;115308;-70
2021/01/30 07:16:40;;;;;;;80.35;42.50;;;;;;;1.84;65.51;96757.43;258748;1114;115257;-71
2021/01/30 07:21:47;;;;;;;76.63;40.98;;;;;;;1.93;65.43;96747.28;258906;1114;115124;-69
2021/01/30 07:27:02;;;;;;;77.80;41.73;;;;;;;1.91;65.28;96734.28;258826;1116;115103;-70
2021/01/30 07:32:04;;;;;;;77.03;41.63;;;;;;;1.92;64.88;96728.08;258874;1114;115053;-71
2021/01/30 07:37:17;;;;;;;82.13;42.35;;;;;;;1.93;65.12;96719.27;258895;1113;115528;-70
2021/01/30 07:42:31;;;;;;;74.30;39.85;;;;;;;2.00;65.29;96719.70;258884;1115;115239;-69
2021/01/30 07:47:48;;;;;;;75.03;40.85;;;;;;;2.02;65.28;96720.47;258682;1116;115772;-69
2021/01/30 07:52:55;;;;;;;81.75;42.15;;;;;;;2.07;65.40;96726.23;258829;1115;115182;-71
2021/01/30 07:57:59;;;;;;;72.53;41.10;;;;;;;2.11;65.31;96709.38;258747;1114;115250;-71
2021/01/30 08:03:20;;;;;;;76.88;39.90;;;;;;;2.20;65.61;96714.00;258817;1115;115557;-71
2021/01/30 08:08:40;;;;;;;79.50;42.90;;;;;;;2.27;65.48;96698.69;258788;1114;114969;-71
2021/01/30 08:13:57;;;;;;;78.90;42.05;;;;;;;2.31;65.59;96679.17;258756;1114;115149;-72
2021/01/30 08:19:10;;;;;;;71.73;39.40;;;;;;;2.35;65.56;96678.05;258686;1116;115845;-72
2021/01/30 08:24:29;;;;;;;79.48;41.45;;;;;;;2.47;65.76;96671.95;258720;1116;115695;-72
2021/01/30 08:29:31;;;;;;;78.28;42.58;;;;;;;2.52;65.85;96669.88;258779;1115;115147;-71
2021/01/30 08:34:36;;;;;;;75.98;42.85;;;;;;;2.55;65.69;96668.83;258778;1114;114889;-72
2021/01/30 08:40:01;;;;;;;71.00;40.50;;;;;;;2.57;66.17;96672.17;258746;1115;114904;-72
2021/01/30 08:45:09;;;;;;;88.40;46.95;;;;;;;2.58;65.93;96668.59;258833;1114;115489;-71
2021/01/30 08:50:13;;;;;;;88.15;48.35;;;;;;;2.61;66.12;96676.27;258842;1113;115803;-71
2021/01/30 08:55:34;;;;;;;81.70;45.50;;;;;;;2.63;65.94;96678.80;258788;1112;115627;-72
2021/01/30 09:00:36;;;;;;;96.45;48.83;;;;;;;2.65;66.15;96667.26;258927;1114;115250;-71
2021/01/30 09:05:41;;;;;;;89.73;47.25;;;;;;;2.77;66.28;96661.14;258831;1113;115372;-71
2021/01/30 09:10:43;;;;;;;87.38;48.05;;;;;;;3.89;68.03;96654.97;258806;1115;115106;-70
2021/01/30 09:15:45;;;;;;;91.95;47.15;;;;;;;3.88;66.01;96654.13;258760;1115;115188;-69
2021/01/30 09:20:56;;;;;;;92.23;48.13;;;;;;;3.78;66.04;96655.76;258808;1115;115322;-70
2021/01/30 09:25:59;;;;;;;87.38;46.35;;;;;;;3.69;65.64;96659.89;258767;1114;115103;-70
2021/01/30 09:31:09;;;;;;;86.95;45.80;;;;;;;3.64;65.81;96658.56;258853;1115;115236;-71
2021/01/30 09:36:16;;;;;;;75.08;42.60;;;;;;;3.61;65.40;96654.36;258918;1114;115543;-70
2021/01/30 09:41:21;;;;;;;76.53;41.20;;;;;;;3.59;65.90;96650.98;258871;1112;115987;-70
2021/01/30 09:46:32;;;;;;;74.40;40.38;;;;;;;3.59;66.01;96644.89;258802;1115;115173;-73
2021/01/30 09:51:41;;;;;;;70.73;38.98;;;;;;;3.58;66.22;96653.73;258846;1115;114976;-72
2021/01/30 09:56:46;;;;;;;76.78;42.43;;;;;;;4.57;71.28;96653.39;258711;1116;115212;-72
2021/01/30 10:01:52;;;;;;;71.18;39.75;;;;;;;4.94;67.49;96633.78;258770;1113;115147;-78
2021/01/30 10:07:07;;;;;;;74.47;42.17;;;;;;;4.88;65.87;96636.05;258811;1116;115232;-73
2021/01/30 10:12:11;;;;;;;69.48;39.10;;;;;;;4.76;65.87;96642.30;258872;1113;115329;-72
2021/01/30 10:17:13;;;;;;;65.85;37.80;;;;;;;4.59;65.60;96630.42;258749;1114;115194;-74
2021/01/30 10:22:22;;;;;;;61.40;34.53;;;;;;;4.47;66.32;96638.28;258863;1116;115035;-74
2021/01/30 10:27:29;;;;;;;64.20;37.20;;;;;;;4.41;66.09;96645.80;258876;1115;114956;-73
2021/01/30 10:32:54;;;;;;;64.93;34.93;;;;;;;4.30;66.25;96665.05;258925;1114;115402;-73
2021/01/30 10:38:19;;;;;;;61.43;36.98;;;;;;;4.19;66.43;96665.86;258804;1114;115050;-74
2021/01/30 10:43:31;;;;;;;65.63;36.23;;;;;;;4.15;66.38;96687.27;258755;1114;115191;-74
2021/01/30 10:48:37;;;;;;;65.30;36.70;;;;;;;4.07;67.44;96679.08;258911;1115;114966;-74
2021/01/30 10:53:41;;;;;;;57.90;31.83;;;;;;;4.17;67.49;96699.34;258716;1114;114958;-74
2021/01/30 10:58:44;;;;;;;50.48;30.13;;;;;;;4.35;67.56;96722.61;258802;1114;115133;-74
2021/01/30 11:03:54;;;;;;;32.05;19.53;;;;;;;4.40;68.07;96716.06;258921;1113;116504;-74
2021/01/30 11:09:00;;;;;;;24.08;12.68;;;;;;;4.39;67.74;96718.83;258759;1114;115040;-74
2021/01/30 11:14:18;;;;;;;18.03;10.45;;;;;;;4.45;67.36;96708.67;258841;1114;115058;-76
2021/01/30 11:19:26;;;;;;;21.83;12.20;;;;;;;4.46;67.13;96688.44;258855;1114;115411;-83
2021/01/30 11:24:47;;;;;;;24.10;13.65;;;;;;;4.37;67.00;96763.69;258758;1114;114996;-77
2021/01/30 11:29:51;;;;;;;43.20;21.93;;;;;;;4.23;67.05;96783.13;258803;1114;115453;-76
2021/01/30 11:34:59;;;;;;;42.58;23.78;;;;;;;4.06;66.46;96804.56;258717;1116;116110;-75
2021/01/30 11:40:11;;;;;;;56.58;30.33;;;;;;;3.80;65.83;96856.39;258928;1114;115022;-74
2021/01/30 11:45:14;;;;;;;51.18;29.18;;;;;;;3.51;65.44;96890.82;258905;1114;115079;-75
2021/01/30 11:50:17;;;;;;;63.33;34.38;;;;;;;3.19;65.12;96902.66;258840;1114;115089;-75
2021/01/30 11:55:20;;;;;;;63.40;35.50;;;;;;;2.97;65.21;96946.13;258821;1114;115021;-77
2021/01/30 12:00:23;;;;;;;56.38;32.08;;;;;;;2.80;64.89;96957.72;258872;1115;115559;-75
2021/01/30 12:05:26;;;;;;;49.03;25.95;;;;;;;2.62;64.64;96973.83;258765;1115;115309;-78
2021/01/30 12:10:30;;;;;;;44.05;26.35;;;;;;;2.44;64.63;96994.17;258781;1116;115279;-77
2021/01/30 12:15:33;;;;;;;47.30;28.03;;;;;;;2.18;64.27;97025.51;258844;1115;114976;-75
2021/01/30 12:20:37;;;;;;;45.50;24.60;;;;;;;1.95;64.36;97045.25;258734;1116;115077;-74
2021/01/30 12:25:42;;;;;;;45.50;24.65;;;;;;;1.77;63.82;97070.79;258700;1115;115602;-74
2021/01/30 12:30:44;;;;;;;39.63;21.68;;;;;;;1.78;64.68;97075.09;258907;1115;115033;-77
2021/01/30 12:35:47;;;;;;;35.13;19.75;;;;;;;1.85;64.08;97075.58;258775;1114;115254;-76
2021/01/30 12:40:53;;;;;;;33.98;19.80;;;;;;;1.82;64.12;97083.62;258874;1116;114923;-74
2021/01/30 12:45:56;;;;;;;31.73;16.95;;;;;;;1.78;63.72;97108.34;258814;1116;115342;-76
2021/01/30 12:50:59;;;;;;;28.00;14.60;;;;;;;1.81;64.27;97137.84;258839;1114;114893;-78
2021/01/30 12:56:02;;;;;;;18.63;9.50;;;;;;;1.64;62.66;97151.08;258789;1115;115695;-75
2021/01/30 13:01:05;;;;;;;18.15;10.95;;;;;;;1.55;63.23;97159.45;258718;1116;115321;-76
2021/01/30 13:06:08;;;;;;;14.70;8.93;;;;;;;1.47;63.08;97183.48;258827;1116;114906;-77
2021/01/30 13:11:10;;;;;;;22.63;11.68;;;;;;;1.44;62.93;97194.13;258785;1115;114974;-78
2021/01/30 13:16:12;;;;;;;24.63;12.03;;;;;;;1.37;62.97;97216.36;258761;1115;115756;-75
2021/01/30 13:21:15;;;;;;;23.00;12.63;;;;;;;1.30;63.04;97236.81;258823;1114;115237;-74
2021/01/30 13:26:17;;;;;;;25.68;12.98;;;;;;;1.24;62.78;97238.91;258876;1114;115052;-74
2021/01/30 13:31:19;;;;;;;22.08;12.30;;;;;;;1.21;62.43;97250.39;258805;1114;115044;-76
2021/01/30 13:36:21;;;;;;;26.03;14.50;;;;;;;1.29;62.91;97245.61;258821;1115;116160;-76
2021/01/30 13:41:24;;;;;;;23.30;12.23;;;;;;;1.37;62.86;97251.27;258649;1114;115168;-75
2021/01/30 13:46:30;;;;;;;26.53;14.50;;;;;;;1.42;62.67;97261.49;258539;1116;115253;-77
2021/01/30 13:51:36;;;;;;;24.65;14.05;;;;;;;1.46;62.65;97260.42;258799;1116;115833;-72
2021/01/30 13:56:40;;;;;;;28.68;15.93;;;;;;;1.44;62.42;97266.67;258694;1115;114939;-74
2021/01/30 14:01:42;;;;;;;30.98;15.25;;;;;;;1.40;62.22;97281.72;258766;1115;114975;-74
2021/01/30 14:06:45;;;;;;;34.25;17.05;;;;;;;1.42;62.09;97296.41;258842;1115;115663;-72
2021/01/30 14:11:49;;;;;;;36.08;17.98;;;;;;;1.33;61.98;97311.80;258741;1114;115905;-71
2021/01/30 14:16:51;;;;;;;34.05;18.25;;;;;;;1.29;62.40;97315.48;258837;1115;115145;-82
2021/01/30 14:21:55;;;;;;;32.63;16.17;;;;;;;1.35;62.12;97318.63;258785;1116;115073;-72
2021/01/30 14:26:58;;;;;;;36.10;16.68;;;;;;;1.38;61.91;97333.34;258582;1116;116403;-74
2021/01/30 14:32:01;;;;;;;30.70;16.33;;;;;;;1.41;61.75;97351.53;258703;1116;115304;-71
2021/01/30 14:37:04;;;;;;;32.50;17.68;;;;;;;1.37;62.03;97357.88;258830;1113;115539;-72
2021/01/30 14:42:06;;;;;;;31.80;17.60;;;;;;;1.34;62.14;97364.11;258819;1114;115143;-72
2021/01/30 14:47:09;;;;;;;30.25;17.35;;;;;;;1.31;61.94;97381.77;258803;1115;115091;-73
2021/01/30 14:52:11;;;;;;;34.68;17.13;;;;;;;1.28;61.65;97395.87;258695;1114;115419;-71
2021/01/30 14:57:14;;;;;;;32.25;17.28;;;;;;;1.28;61.65;97405.50;257784;1114;115544;-76
2021/01/30 15:02:16;;;;;;;33.68;18.20;;;;;;;1.29;61.65;97412.43;258816;1116;115236;-74
2021/01/30 15:07:18;;;;;;;34.90;18.23;;;;;;;1.33;61.90;97420.08;258827;1114;114962;-74
2021/01/30 15:12:21;;;;;;;36.77;19.97;;;;;;;1.33;62.06;97432.34;258319;1115;115683;-71
2021/01/30 15:17:24;;;;;;;40.95;21.15;;;;;;;1.38;61.45;97448.66;257963;1115;115098;-73
2021/01/30 15:22:27;;;;;;;37.75;19.95;;;;;;;1.42;62.04;97445.80;258799;1113;115095;-71
2021/01/30 15:27:29;;;;;;;37.50;19.78;;;;;;;1.40;61.66;97457.30;258772;1116;115982;-71
2021/01/30 15:32:32;;;;;;;38.95;21.80;;;;;;;1.32;61.40;97456.83;258140;1114;115612;-74
2021/01/30 15:37:34;;;;;;;34.98;18.78;;;;;;;1.30;61.39;97470.02;258916;1114;115126;-72
2021/01/30 15:42:37;;;;;;;34.00;17.40;;;;;;;1.31;61.75;97471.70;258763;1116;115603;-72
2021/01/30 15:47:42;;;;;;;34.28;17.15;;;;;;;1.37;61.74;97488.91;258831;1115;114885;-72
2021/01/30 15:52:45;;;;;;;34.48;18.73;;;;;;;1.43;61.53;97485.98;258700;1115;115156;-72
2021/01/30 15:57:48;;;;;;;36.27;18.67;;;;;;;1.40;61.18;97492.22;258811;1115;115830;-70
2021/01/30 16:02:50;;;;;;;32.37;18.57;;;;;;;1.34;61.52;97502.16;258875;1116;115394;-72
2021/01/30 16:07:52;;;;;;;32.60;17.33;;;;;;;1.39;61.69;97505.38;258423;1115;115300;-70
2021/01/30 16:12:55;;;;;;;35.28;19.58;;;;;;;1.36;61.24;97503.78;258770;1116;115899;-73
2021/01/30 16:17:58;;;;;;;34.93;19.88;;;;;;;1.38;61.48;97515.02;258717;1115;115060;-71
2021/01/30 16:23:02;;;;;;;39.53;20.08;;;;;;;1.44;61.11;97524.36;258962;1115;115002;-71
2021/01/30 16:28:08;;;;;;;36.60;18.55;;;;;;;1.45;61.20;97531.30;258495;1115;115602;-70
2021/01/30 16:33:11;;;;;;;35.05;19.88;;;;;;;1.42;61.14;97532.28;258825;1115;115098;-70
2021/01/30 16:38:14;;;;;;;37.23;20.65;;;;;;;1.37;60.99;97539.55;258192;1114;115722;-73
2021/01/30 16:43:17;;;;;;;39.85;20.58;;;;;;;1.39;61.46;97534.21;258458;1116;115746;-72
2021/01/30 16:48:20;;;;;;;33.90;18.40;;;;;;;1.38;61.57;97551.72;258798;1115;115802;-71
2021/01/30 16:53:23;;;;;;;35.95;17.58;;;;;;;1.29;61.40;97554.80;258617;1115;115444;-71
2021/01/30 16:58:26;;;;;;;37.28;19.78;;;;;;;1.22;60.93;97553.38;258805;1116;115931;-71
2021/01/30 17:03:30;;;;;;;36.75;20.05;;;;;;;1.22;61.53;97556.00;258696;1115;115899;-72
2021/01/30 17:08:33;;;;;;;39.20;19.98;;;;;;;1.17;61.30;97571.11;258736;1116;115878;-71
2021/01/30 17:13:36;;;;;;;36.23;18.53;;;;;;;1.10;61.65;97585.42;258818;1115;115501;-72
2021/01/30 17:18:40;;;;;;;38.00;20.78;;;;;;;1.12;61.87;97583.56;258828;1114;115628;-72
2021/01/30 17:23:44;;;;;;;41.43;21.55;;;;;;;1.13;61.70;97596.60;258726;1115;115504;-71
2021/01/30 17:28:47;;;;;;;43.10;21.23;;;;;;;1.15;61.98;97613.08;258711;1116;116044;-70
2021/01/30 17:33:51;;;;;;;39.00;22.90;;;;;;;1.22;61.58;97621.50;258766;1115;115194;-70
2021/01/30 17:38:53;;;;;;;41.55;22.83;;;;;;;1.26;62.17;97614.34;258718;1113;115136;-72
2021/01/30 17:43:57;;;;;;;41.30;23.13;;;;;;;1.19;61.93;97616.44;258314;1115;115281;-71
2021/01/30 17:49:01;;;;;;;44.20;23.10;;;;;;;1.16;61.50;97622.66;258335;1116;115268;-71
2021/01/30 17:54:04;;;;;;;43.33;23.45;;;;;;;1.16;61.38;97633.14;258525;1115;115447;-71
2021/01/30 17:59:11;;;;;;;38.65;21.28;;;;;;;1.13;61.35;97624.58;258517;1113;115328;-71
2021/01/30 18:04:19;;;;;;;41.78;21.80;;;;;;;1.06;61.25;97631.88;258756;1115;115362;-71
2021/01/30 18:09:22;;;;;;;42.48;23.23;;;;;;;1.07;61.43;97638.80;257857;1116;115207;-69
2021/01/30 18:14:28;;;;;;;41.75;21.85;;;;;;;1.07;61.47;97636.18;258442;1116;115278;-71
2021/01/30 18:19:32;;;;;;;39.40;22.88;;;;;;;1.09;61.58;97642.21;256919;1114;115027;-71
2021/01/30 18:24:39;;;;;;;37.60;20.15;;;;;;;1.13;61.86;97646.38;257727;1116;115179;-69
2021/01/30 18:29:43;;;;;;;39.17;20.83;;;;;;;1.03;61.44;97650.34;258616;1116;115017;-71
2021/01/30 18:34:53;;;;;;;41.58;21.90;;;;;;;1.05;61.47;97648.48;258669;1115;115607;-69
2021/01/30 18:40:00;;;;;;;42.23;23.60;;;;;;;1.05;61.22;97648.48;258845;1116;114886;-71
2021/01/30 18:45:10;;;;;;;41.98;21.80;;;;;;;1.05;61.54;97658.97;258897;1115;115197;-70
2021/01/30 18:50:17;;;;;;;43.68;23.20;;;;;;;1.06;61.46;97668.55;258756;1116;115526;-69
2021/01/30 18:55:25;;;;;;;43.13;23.40;;;;;;;1.13;61.47;97664.72;258738;1114;115092;-70
2021/01/30 19:00:35;;;;;;;41.75;23.65;;;;;;;1.13;61.52;97662.10;258853;1116;115202;-70
2021/01/30 19:05:49;;;;;;;42.80;22.65;;;;;;;1.21;61.44;97663.52;258845;1116;115599;-71
2021/01/30 19:10:58;;;;;;;39.83;22.25;;;;;;;1.21;61.04;97655.65;258859;1115;116217;-69
2021/01/30 19:16:01;;;;;;;41.40;22.73;;;;;;;1.17;61.09;97658.41;258870;1115;115128;-72
2021/01/30 19:21:08;;;;;;;42.05;22.98;;;;;;;1.18;61.50;97656.63;258952;1113;115730;-73
2021/01/30 19:26:15;;;;;;;46.45;24.63;;;;;;;1.20;61.51;97653.96;258776;1115;115674;-71
2021/01/30 19:31:19;;;;;;;46.85;25.45;;;;;;;1.20;61.47;97656.58;258836;1116;115464;-71
2021/01/30 19:36:23;;;;;;;51.45;25.73;;;;;;;1.23;60.96;97659.91;258811;1115;115036;-70
2021/01/30 19:41:31;;;;;;;47.23;24.70;;;;;;;1.23;61.25;97670.39;258755;1116;115966;-71
2021/01/30 19:46:38;;;;;;;48.58;24.00;;;;;;;1.24;61.06;97668.61;258912;1115;115806;-73
2021/01/30 19:51:48;;;;;;;50.55;26.73;;;;;;;1.22;61.19;97680.92;258870;1115;115186;-71
2021/01/30 19:56:55;;;;;;;45.75;24.00;;;;;;;1.12;61.22;97686.61;258783;1114;115437;-72
2021/01/30 20:02:03;;;;;;;48.63;25.77;;;;;;;1.10;61.26;97685.81;257877;1114;115265;-73
2021/01/30 20:07:10;;;;;;;50.23;25.78;;;;;;;1.17;61.52;97704.72;258893;1116;115507;-73
2021/01/30 20:12:17;;;;;;;48.43;24.60;;;;;;;1.15;61.34;97706.55;258686;1116;115177;-69
2021/01/30 20:17:19;;;;;;;50.30;26.30;;;;;;;1.14;61.38;97705.70;258722;1116;115943;-70
2021/01/30 20:22:22;;;;;;;46.23;23.35;;;;;;;1.13;61.42;97714.50;259003;1112;115013;-71
2021/01/30 20:27:26;;;;;;;49.23;25.90;;;;;;;1.09;61.76;97719.95;258797;1113;115609;-70
2021/01/30 20:32:28;;;;;;;51.55;27.48;;;;;;;1.08;61.20;97716.45;258712;1116;115372;-70
2021/01/30 20:37:31;;;;;;;44.43;24.03;;;;;;;1.05;61.81;97716.59;258823;1116;115218;-71
2021/01/30 20:42:33;;;;;;;50.75;25.60;;;;;;;1.04;61.92;97721.91;258936;1114;115822;-70
2021/01/30 20:47:35;;;;;;;45.40;24.40;;;;;;;1.10;61.48;97726.88;258861;1114;115302;-70
2021/01/30 20:52:37;;;;;;;44.23;23.50;;;;;;;1.09;61.59;97726.04;258239;1115;115976;-70
2021/01/30 20:57:40;;;;;;;47.75;25.73;;;;;;;1.06;61.44;97720.94;258711;1115;115680;-70
2021/01/30 21:02:42;;;;;;;44.73;24.55;;;;;;;1.04;61.85;97719.30;258830;1115;114940;-69
2021/01/30 21:07:45;;;;;;;50.20;24.78;;;;;;;1.06;61.41;97720.09;258827;1115;114972;-70
2021/01/30 21:12:48;;;;;;;51.33;26.90;;;;;;;1.08;62.02;97723.47;258812;1115;115703;-70
2021/01/30 21:17:52;;;;;;;52.95;25.28;;;;;;;1.04;61.92;97730.62;258149;1115;115489;-70
2021/01/30 21:22:56;;;;;;;46.18;22.83;;;;;;;1.01;61.76;97730.75;258689;1116;115613;-70
2021/01/30 21:27:58;;;;;;;46.95;23.53;;;;;;;0.91;62.22;97738.16;258736;1115;115363;-71
2021/01/30 21:33:01;;;;;;;42.83;22.68;;;;;;;0.88;61.95;97750.55;258900;1113;115287;-71
2021/01/30 21:38:03;;;;;;;48.60;25.40;;;;;;;0.80;62.08;97745.66;258797;1114;115602;-71
2021/01/30 21:43:05;;;;;;;46.40;24.25;;;;;;;0.77;61.96;97751.02;258860;1115;115932;-71
2021/01/30 21:48:08;;;;;;;48.47;25.13;;;;;;;0.73;62.71;97757.31;258891;1116;115031;-71
2021/01/30 21:53:10;;;;;;;50.53;25.88;;;;;;;0.79;62.98;97759.67;258855;1113;115922;-71
2021/01/30 21:58:13;;;;;;;46.53;25.10;;;;;;;0.80;62.62;97755.28;258836;1115;115213;-71
2021/01/30 22:03:15;;;;;;;56.85;28.58;;;;;;;0.82;62.93;97764.78;258743;1115;117094;-70
2021/01/30 22:08:18;;;;;;;53.05;27.43;;;;;;;0.80;62.97;97766.59;258944;1115;115683;-71
2021/01/30 22:13:20;;;;;;;52.15;27.40;;;;;;;0.80;62.70;97765.75;258797;1113;115329;-71
2021/01/30 22:18:23;;;;;;;54.28;28.88;;;;;;;0.80;63.30;97763.13;258762;1115;115818;-71
2021/01/30 22:23:25;;;;;;;61.53;29.40;;;;;;;0.80;63.11;97768.38;258760;1115;115895;-71
2021/01/30 22:28:27;;;;;;;58.23;30.55;;;;;;;0.83;63.66;97763.00;258749;1116;114803;-71
2021/01/30 22:33:29;;;;;;;57.28;29.48;;;;;;;0.80;63.81;97769.22;258785;1115;115679;-71
2021/01/30 22:38:32;;;;;;;57.58;29.38;;;;;;;0.74;63.61;97763.39;258814;1116;115438;-72
2021/01/30 22:43:34;;;;;;;60.53;30.67;;;;;;;0.67;63.15;97766.27;258804;1115;115173;-71
2021/01/30 22:48:37;;;;;;;60.58;31.40;;;;;;;0.63;63.75;97761.23;258651;1114;116029;-71
2021/01/30 22:53:41;;;;;;;54.15;28.65;;;;;;;0.65;63.92;97760.27;258716;1116;115011;-71
2021/01/30 22:58:46;;;;;;;65.50;32.63;;;;;;;0.65;63.41;97759.42;258613;1113;115916;-71
2021/01/30 23:03:51;;;;;;;60.93;32.53;;;;;;;0.64;63.59;97757.70;258757;1115;115700;-70
2021/01/30 23:08:54;;;;;;;61.30;32.03;;;;;;;0.60;63.90;97759.59;258701;1115;115267;-71
2021/01/30 23:13:58;;;;;;;66.33;32.35;;;;;;;0.60;63.51;97761.37;258246;1116;115270;-69